Time,TemperatureF,DewpointF,PressureIn,WindDirection,WindDirectionDegrees,WindSpeedMPH,WindSpeedGustMPH,Humidity,HourlyPrecipIn,Conditions,Clouds,dailyrainin,SoftwareType,DateUTC
2013-05-06 00:01:00,30.0,3.0,-100.00,WSW,255,4.0,7.0,30,0.00,,,0.00,,2013-05-06 08:01:00,
2013-05-06 00:12:00,30.0,3.0,-100.00,WSW,255,4.0,7.0,30,0.00,,,0.00,,2013-05-06 08:12:00,
2013-05-06 00:22:00,30.0,3.0,-100.00,West,270,4.0,6.0,30,0.00,,,0.00,,2013-05-06 08:22:00,
2013-05-06 00:31:00,30.0,3.0,-100.00,West,270,4.0,6.0,30,0.00,,,0.00,,2013-05-06 08:31:00,
2013-05-06 00:41:00,30.0,3.0,-100.00,West,270,4.0,6.0,30,0.00,,,0.00,,2013-05-06 08:41:00,
2013-05-06 00:52:00,30.0,2.0,-100.00,WNW,285,4.0,7.0,29,0.00,,,0.00,,2013-05-06 08:52:00,
2013-05-06 01:01:00,30.0,2.0,-100.00,WNW,285,4.0,7.0,29,0.00,,,0.00,,2013-05-06 09:01:00,
2013-05-06 01:11:00,30.0,2.0,-100.00,WNW,285,4.0,7.0,29,0.00,,,0.00,,2013-05-06 09:11:00,
2013-05-06 01:22:00,30.0,2.0,-100.00,West,280,4.0,6.0,29,0.00,,,0.00,,2013-05-06 09:22:00,
2013-05-06 01:32:00,30.0,2.0,-100.00,West,280,4.0,6.0,29,0.00,,,0.00,,2013-05-06 09:32:00,
2013-05-06 01:42:00,30.0,2.0,-100.00,West,280,4.0,6.0,29,0.00,,,0.00,,2013-05-06 09:42:00,
2013-05-06 01:53:00,30.0,2.0,-100.00,SW,215,3.0,6.0,29,0.00,,,0.00,,2013-05-06 09:53:00,
2013-05-06 02:02:00,30.0,2.0,-100.00,SW,215,3.0,6.0,29,0.00,,,0.00,,2013-05-06 10:02:00,
2013-05-06 02:12:00,30.0,2.0,-100.00,SW,215,3.0,6.0,29,0.00,,,0.00,,2013-05-06 10:12:00,
2013-05-06 02:22:00,26.0,1.0,-100.00,WSW,240,1.0,2.0,32,0.00,,,0.00,,2013-05-06 10:22:00,
2013-05-06 02:32:00,26.0,1.0,-100.00,WSW,240,1.0,2.0,32,0.00,,,0.00,,2013-05-06 10:32:00,
2013-05-06 02:41:00,26.0,1.0,-100.00,WSW,240,1.0,2.0,32,0.00,,,0.00,,2013-05-06 10:41:00,
2013-05-06 02:52:00,29.0,2.0,-100.00,West,260,5.0,9.0,31,0.00,,,0.00,,2013-05-06 10:52:00,
2013-05-06 03:02:00,29.0,2.0,-100.00,West,260,5.0,9.0,31,0.00,,,0.00,,2013-05-06 11:02:00,
2013-05-06 03:12:00,29.0,2.0,-100.00,West,260,5.0,9.0,31,0.00,,,0.00,,2013-05-06 11:12:00,
2013-05-06 03:22:00,29.0,2.0,-100.00,West,260,4.0,7.0,30,0.00,,,0.00,,2013-05-06 11:22:00,
2013-05-06 03:31:00,29.0,2.0,-100.00,West,260,4.0,7.0,30,0.00,,,0.00,,2013-05-06 11:31:00,
2013-05-06 03:52:00,29.0,2.0,-100.00,WNW,285,3.0,6.0,30,0.00,,,0.00,,2013-05-06 11:52:00,
2013-05-06 04:12:00,29.0,2.0,-100.00,WNW,285,3.0,6.0,30,0.00,,,0.00,,2013-05-06 12:12:00,
2013-05-06 04:21:00,29.0,1.0,-100.00,West,270,3.0,6.0,30,0.00,,,0.00,,2013-05-06 12:21:00,
2013-05-06 04:51:00,28.0,2.0,-100.00,West,260,3.0,6.0,31,0.00,,,0.00,,2013-05-06 12:51:00,
2013-05-06 05:01:00,28.0,2.0,-100.00,West,260,3.0,6.0,31,0.00,,,0.00,,2013-05-06 13:01:00,
2013-05-06 05:11:00,28.0,2.0,-100.00,West,260,3.0,6.0,31,0.00,,,0.00,,2013-05-06 13:11:00,
2013-05-06 05:21:00,27.0,2.0,-100.00,WSW,245,3.0,6.0,33,0.00,,,0.00,,2013-05-06 13:21:00,
2013-05-06 05:52:00,27.0,3.0,-100.00,WSW,250,3.0,5.0,35,0.00,,,0.00,,2013-05-06 13:52:00,
2013-05-06 06:01:00,27.0,3.0,-100.00,WSW,250,3.0,5.0,35,0.00,,,0.00,,2013-05-06 14:01:00,
2013-05-06 06:11:00,27.0,3.0,-100.00,WSW,250,3.0,5.0,35,0.00,,,0.00,,2013-05-06 14:11:00,
2013-05-06 06:21:00,26.0,3.0,-100.00,WSW,240,3.0,6.0,36,0.00,,,0.00,,2013-05-06 14:21:00,
2013-05-06 06:32:00,26.0,3.0,-100.00,WSW,240,3.0,6.0,36,0.00,,,0.00,,2013-05-06 14:32:00,
2013-05-06 06:42:00,26.0,3.0,-100.00,WSW,240,3.0,6.0,36,0.00,,,0.00,,2013-05-06 14:42:00,
2013-05-06 06:51:00,26.0,4.0,-100.00,SSW,200,2.0,7.0,38,0.00,,,0.00,,2013-05-06 14:51:00,
2013-05-06 07:01:00,26.0,4.0,-100.00,SSW,200,2.0,7.0,38,0.00,,,0.00,,2013-05-06 15:01:00,
2013-05-06 07:11:00,26.0,4.0,-100.00,SSW,200,2.0,7.0,38,0.00,,,0.00,,2013-05-06 15:11:00,
2013-05-06 07:21:00,26.0,4.0,-100.00,West,275,4.0,9.0,38,0.00,,,0.00,,2013-05-06 15:21:00,
2013-05-06 07:33:00,26.0,4.0,-100.00,West,275,4.0,9.0,38,0.00,,,0.00,,2013-05-06 15:33:00,
2013-05-06 07:42:00,26.0,4.0,-100.00,West,275,4.0,9.0,38,0.00,,,0.00,,2013-05-06 15:42:00,
2013-05-06 07:53:00,27.0,5.0,-100.00,WSW,245,2.0,4.0,38,0.00,,,0.00,,2013-05-06 15:53:00,
2013-05-06 08:03:00,27.0,5.0,-100.00,WSW,245,2.0,4.0,38,0.00,,,0.00,,2013-05-06 16:03:00,
2013-05-06 08:13:00,27.0,5.0,-100.00,WSW,245,2.0,4.0,38,0.00,,,0.00,,2013-05-06 16:13:00,
2013-05-06 08:23:00,28.0,6.0,-100.00,SSW,200,2.0,4.0,37,0.00,,,0.00,,2013-05-06 16:23:00,
2013-05-06 08:32:00,28.0,6.0,-100.00,SSW,200,2.0,4.0,37,0.00,,,0.00,,2013-05-06 16:32:00,
2013-05-06 08:41:00,28.0,6.0,-100.00,SSW,200,2.0,4.0,37,0.00,,,0.00,,2013-05-06 16:41:00,
2013-05-06 08:52:00,29.0,6.0,-100.00,SSW,200,2.0,4.0,37,0.00,,,0.00,,2013-05-06 16:52:00,
2013-05-06 09:02:00,29.0,6.0,-100.00,SSW,200,2.0,4.0,37,0.00,,,0.00,,2013-05-06 17:02:00,
2013-05-06 09:12:00,29.0,6.0,-100.00,SSW,200,2.0,4.0,37,0.00,,,0.00,,2013-05-06 17:12:00,
2013-05-06 09:20:00,33.0,8.0,-100.00,SSE,165,2.0,5.0,35,0.00,,,0.00,,2013-05-06 17:20:00,
2013-05-06 09:23:00,31.0,7.0,-100.00,SSE,160,1.0,2.0,36,0.00,,,0.00,,2013-05-06 17:23:00,
2013-05-06 09:31:00,31.0,7.0,-100.00,SSE,160,1.0,2.0,36,0.00,,,0.00,,2013-05-06 17:31:00,
2013-05-06 09:42:00,31.0,7.0,-100.00,SSE,160,1.0,2.0,36,0.00,,,0.00,,2013-05-06 17:42:00,
2013-05-06 09:52:00,33.0,8.0,-100.00,SSE,165,2.0,5.0,35,0.00,,,0.00,,2013-05-06 17:52:00,
2013-05-06 10:01:00,33.0,8.0,-100.00,SSE,165,2.0,5.0,35,0.00,,,0.00,,2013-05-06 18:01:00,
2013-05-06 10:12:00,33.0,8.0,-100.00,SSE,165,2.0,5.0,35,0.00,,,0.00,,2013-05-06 18:12:00,
2013-05-06 10:52:00,36.0,10.0,-100.00,NW,315,1.0,3.0,32,0.00,,,0.00,,2013-05-06 18:52:00,
2013-05-06 11:01:00,36.0,10.0,-100.00,NW,315,1.0,3.0,32,0.00,,,0.00,,2013-05-06 19:01:00,
2013-05-06 11:11:00,36.0,10.0,-100.00,NW,315,1.0,3.0,32,0.00,,,0.00,,2013-05-06 19:11:00,
2013-05-06 11:22:00,36.0,10.0,-100.00,NNW,330,1.0,6.0,32,0.00,,,0.00,,2013-05-06 19:22:00,
2013-05-06 11:32:00,36.0,10.0,-100.00,NNW,330,1.0,6.0,32,0.00,,,0.00,,2013-05-06 19:32:00,
2013-05-06 11:41:00,36.0,10.0,-100.00,NNW,330,1.0,6.0,32,0.00,,,0.00,,2013-05-06 19:41:00,
2013-05-06 11:52:00,36.0,9.0,-100.00,West,270,7.0,12.0,31,0.00,,,0.00,,2013-05-06 19:52:00,
2013-05-06 12:01:00,36.0,9.0,-100.00,West,270,7.0,12.0,31,0.00,,,0.00,,2013-05-06 20:01:00,
2013-05-06 12:11:00,36.0,9.0,-100.00,West,270,7.0,12.0,31,0.00,,,0.00,,2013-05-06 20:11:00,
2013-05-06 12:21:00,37.0,9.0,-100.00,West,280,6.0,9.0,30,0.00,,,0.00,,2013-05-06 20:21:00,
2013-05-06 12:32:00,37.0,9.0,-100.00,West,280,6.0,9.0,30,0.00,,,0.00,,2013-05-06 20:32:00,
2013-05-06 12:41:00,37.0,9.0,-100.00,West,280,6.0,9.0,30,0.00,,,0.00,,2013-05-06 20:41:00,
2013-05-06 12:52:00,38.0,9.0,-100.00,WSW,250,6.0,11.0,30,0.00,,,0.00,,2013-05-06 20:52:00,
2013-05-06 13:01:00,38.0,9.0,-100.00,WSW,250,6.0,11.0,30,0.00,,,0.00,,2013-05-06 21:01:00,
2013-05-06 13:11:00,38.0,9.0,-100.00,WSW,250,6.0,11.0,30,0.00,,,0.00,,2013-05-06 21:11:00,
2013-05-06 13:21:00,38.0,9.0,-100.00,WNW,285,6.0,12.0,30,0.00,,,0.00,,2013-05-06 21:21:00,
2013-05-06 13:32:00,38.0,9.0,-100.00,WNW,285,6.0,12.0,30,0.00,,,0.00,,2013-05-06 21:32:00,
2013-05-06 13:42:00,38.0,9.0,-100.00,WNW,285,6.0,12.0,30,0.00,,,0.00,,2013-05-06 21:42:00,
2013-05-06 13:53:00,38.0,9.0,-100.00,West,265,6.0,14.0,30,0.00,,,0.00,,2013-05-06 21:53:00,
2013-05-06 14:03:00,38.0,9.0,-100.00,West,265,6.0,14.0,30,0.00,,,0.00,,2013-05-06 22:03:00,
2013-05-06 14:12:00,38.0,9.0,-100.00,West,265,6.0,14.0,30,0.00,,,0.00,,2013-05-06 22:12:00,
2013-05-06 14:22:00,38.0,10.0,-100.00,NW,305,5.0,12.0,30,0.00,,,0.00,,2013-05-06 22:22:00,
2013-05-06 14:33:00,38.0,10.0,-100.00,NW,305,5.0,12.0,30,0.00,,,0.00,,2013-05-06 22:33:00,
2013-05-06 14:45:00,38.0,10.0,-100.00,NW,305,5.0,12.0,30,0.00,,,0.00,,2013-05-06 22:45:00,
2013-05-06 14:52:00,39.0,10.0,-100.00,WSW,250,4.0,10.0,29,0.00,,,0.00,,2013-05-06 22:52:00,
2013-05-06 15:02:00,39.0,10.0,-100.00,WSW,250,4.0,10.0,29,0.00,,,0.00,,2013-05-06 23:02:00,
2013-05-06 15:12:00,39.0,10.0,-100.00,WSW,250,4.0,10.0,29,0.00,,,0.00,,2013-05-06 23:12:00,
2013-05-06 15:22:00,38.0,7.0,-100.00,West,275,9.0,16.0,27,0.00,,,0.00,,2013-05-06 23:22:00,
2013-05-06 15:31:00,38.0,7.0,-100.00,West,275,9.0,16.0,27,0.00,,,0.00,,2013-05-06 23:31:00,
2013-05-06 15:41:00,38.0,7.0,-100.00,West,275,9.0,16.0,27,0.00,,,0.00,,2013-05-06 23:41:00,
2013-05-06 15:52:00,38.0,7.0,-100.00,SW,220,7.0,19.0,26,0.00,,,0.00,,2013-05-06 23:52:00,
2013-05-06 16:01:00,38.0,7.0,-100.00,SW,220,7.0,19.0,26,0.00,,,0.00,,2013-05-07 00:01:00,
2013-05-06 16:11:00,38.0,7.0,-100.00,SW,220,7.0,19.0,26,0.00,,,0.00,,2013-05-07 00:11:00,
2013-05-06 16:21:00,39.0,8.0,-100.00,West,270,7.0,14.0,27,0.00,,,0.00,,2013-05-07 00:21:00,
2013-05-06 16:31:00,39.0,8.0,-100.00,West,270,7.0,14.0,27,0.00,,,0.00,,2013-05-07 00:31:00,
2013-05-06 16:41:00,39.0,8.0,-100.00,West,270,7.0,14.0,27,0.00,,,0.00,,2013-05-07 00:41:00,
2013-05-06 16:51:00,38.0,8.0,-100.00,SW,235,7.0,20.0,27,0.00,,,0.00,,2013-05-07 00:51:00,
2013-05-06 17:01:00,38.0,8.0,-100.00,SW,235,7.0,20.0,27,0.00,,,0.00,,2013-05-07 01:01:00,
2013-05-06 17:11:00,38.0,8.0,-100.00,SW,235,7.0,20.0,27,0.00,,,0.00,,2013-05-07 01:11:00,
2013-05-06 17:21:00,40.0,9.0,-100.00,West,280,4.0,10.0,27,0.00,,,0.00,,2013-05-07 01:21:00,
2013-05-06 17:31:00,40.0,9.0,-100.00,West,280,4.0,10.0,27,0.00,,,0.00,,2013-05-07 01:31:00,
2013-05-06 17:42:00,40.0,9.0,-100.00,West,280,4.0,10.0,27,0.00,,,0.00,,2013-05-07 01:42:00,
2013-05-06 17:52:00,38.0,8.0,-100.00,West,275,4.0,9.0,28,0.00,,,0.00,,2013-05-07 01:52:00,
2013-05-06 18:02:00,38.0,8.0,-100.00,West,275,4.0,9.0,28,0.00,,,0.00,,2013-05-07 02:02:00,
2013-05-06 18:11:00,38.0,8.0,-100.00,West,275,4.0,9.0,28,0.00,,,0.00,,2013-05-07 02:11:00,
2013-05-06 18:21:00,38.0,9.0,-100.00,West,270,5.0,12.0,28,0.00,,,0.00,,2013-05-07 02:21:00,
2013-05-06 18:31:00,38.0,9.0,-100.00,West,270,5.0,12.0,28,0.00,,,0.00,,2013-05-07 02:31:00,
2013-05-06 18:41:00,38.0,9.0,-100.00,West,270,5.0,12.0,28,0.00,,,0.00,,2013-05-07 02:41:00,
2013-05-06 18:51:00,38.0,9.0,-100.00,NW,325,4.0,13.0,29,0.00,,,0.00,,2013-05-07 02:51:00,
2013-05-06 19:01:00,38.0,9.0,-100.00,NW,325,4.0,13.0,29,0.00,,,0.00,,2013-05-07 03:01:00,
2013-05-06 19:11:00,38.0,9.0,-100.00,NW,325,4.0,13.0,29,0.00,,,0.00,,2013-05-07 03:11:00,
2013-05-06 19:21:00,38.0,9.0,-100.00,West,280,6.0,7.0,29,0.00,,,0.00,,2013-05-07 03:21:00,
2013-05-06 19:32:00,38.0,9.0,-100.00,West,280,6.0,7.0,29,0.00,,,0.00,,2013-05-07 03:32:00,
2013-05-06 19:42:00,38.0,9.0,-100.00,West,280,6.0,7.0,29,0.00,,,0.00,,2013-05-07 03:42:00,
2013-05-06 19:53:00,36.0,8.0,-100.00,West,280,4.0,10.0,30,0.00,,,0.00,,2013-05-07 03:53:00,
2013-05-06 20:02:00,36.0,8.0,-100.00,West,280,4.0,10.0,30,0.00,,,0.00,,2013-05-07 04:02:00,
2013-05-06 20:12:00,36.0,8.0,-100.00,West,280,4.0,10.0,30,0.00,,,0.00,,2013-05-07 04:12:00,
2013-05-06 20:23:00,36.0,8.0,-100.00,North,355,1.0,6.0,31,0.00,,,0.00,,2013-05-07 04:23:00,
2013-05-06 20:33:00,36.0,8.0,-100.00,North,355,1.0,6.0,31,0.00,,,0.00,,2013-05-07 04:33:00,
2013-05-06 20:42:00,36.0,8.0,-100.00,North,355,1.0,6.0,31,0.00,,,0.00,,2013-05-07 04:42:00,
2013-05-06 20:52:00,35.0,9.0,-100.00,NW,315,4.0,7.0,32,0.00,,,0.00,,2013-05-07 04:52:00,
2013-05-06 21:02:00,35.0,9.0,-100.00,NW,315,4.0,7.0,32,0.00,,,0.00,,2013-05-07 05:02:00,
2013-05-06 21:12:00,35.0,9.0,-100.00,NW,315,4.0,7.0,32,0.00,,,0.00,,2013-05-07 05:12:00,
2013-05-06 21:22:00,35.0,8.0,-100.00,NNW,330,4.0,7.0,32,0.00,,,0.00,,2013-05-07 05:22:00,
2013-05-06 21:32:00,35.0,8.0,-100.00,NNW,330,4.0,7.0,32,0.00,,,0.00,,2013-05-07 05:32:00,
2013-05-06 21:42:00,35.0,8.0,-100.00,NNW,330,4.0,7.0,32,0.00,,,0.00,,2013-05-07 05:42:00,
2013-05-06 21:51:00,34.0,8.0,-100.00,WNW,300,4.0,6.0,33,0.00,,,0.00,,2013-05-07 05:51:00,
2013-05-06 22:02:00,34.0,8.0,-100.00,WNW,300,4.0,6.0,33,0.00,,,0.00,,2013-05-07 06:02:00,
2013-05-06 22:12:00,34.0,8.0,-100.00,WNW,300,4.0,6.0,33,0.00,,,0.00,,2013-05-07 06:12:00,
2013-05-06 22:21:00,34.0,8.0,-100.00,WNW,285,4.0,9.0,32,0.00,,,0.00,,2013-05-07 06:21:00,
2013-05-06 22:32:00,34.0,8.0,-100.00,WNW,285,4.0,9.0,32,0.00,,,0.00,,2013-05-07 06:32:00,
2013-05-06 22:42:00,34.0,8.0,-100.00,WNW,285,4.0,9.0,32,0.00,,,0.00,,2013-05-07 06:42:00,
2013-05-06 22:52:00,34.0,8.0,-100.00,WNW,285,4.0,6.0,32,0.00,,,0.00,,2013-05-07 06:52:00,
2013-05-06 23:02:00,34.0,8.0,-100.00,WNW,285,4.0,6.0,32,0.00,,,0.00,,2013-05-07 07:02:00,
2013-05-06 23:11:00,34.0,8.0,-100.00,WNW,285,4.0,6.0,32,0.00,,,0.00,,2013-05-07 07:11:00,
2013-05-06 23:22:00,33.0,8.0,-100.00,West,280,4.0,7.0,33,0.00,,,0.00,,2013-05-07 07:22:00,
2013-05-06 23:31:00,33.0,8.0,-100.00,West,280,4.0,7.0,33,0.00,,,0.00,,2013-05-07 07:31:00,
2013-05-06 23:42:00,33.0,8.0,-100.00,West,280,4.0,7.0,33,0.00,,,0.00,,2013-05-07 07:42:00,
2013-05-06 23:52:00,33.0,7.0,-100.00,West,260,5.0,7.0,33,0.00,,,0.00,,2013-05-07 07:52:00,